Flight Track Log - Related Links

Times and Time Zones

All times are in EDT time to prevent confusion due to time zone crossing. See the N1944E flight status page for this flight to view local times or setup timezone preferences in your user account.


Time Position Orientation Groundspeed Altitude Reporting Facility
EDT Latitude Longitude Course Direction KTS MPH feet Rate Location/Type
Tue 09:19:22 AM 44.8497 -108.8011 25° Northeast 204 235 14,300  Level Salt Lake Center
Tue 09:20:00 AM 44.7631 -108.8636 25° Northeast  Level FlightAware Approximate
Tue 09:20:23 AM 44.8869 -108.7800 22° Northeast 153 176 15,100  Level Salt Lake Center
Tue 09:21:00 AM 44.8119 -108.8310 25° Northeast  Level FlightAware Approximate
Tue 09:21:24 AM 44.9228 -108.7583 23° Northeast 152 175 15,900  Level Salt Lake Center
Tue 09:22:00 AM 44.8607 -108.7985 25° Northeast  Level FlightAware Approximate
Tue 09:22:25 AM 44.9689 -108.7317 22° Northeast 155 178 16,800  Level Salt Lake Center
Tue 09:23:00 AM 44.9106 -108.7697 19° North  Level FlightAware Approximate
Tue 09:23:26 AM 45.0108 -108.7050 24° Northeast 161 185 17,200  Level Salt Lake Center
Tue 09:24:00 AM 44.9596 -108.7380 25° Northeast  Level FlightAware Approximate
Tue 09:24:27 AM 45.0586 -108.6725 26° Northeast 176 203 17,100  Level Salt Lake Center
Tue 09:25:28 AM 45.1283 -108.6317 22° Northeast 217 250 17,000 -49 Descending Salt Lake Center
Tue 09:26:30 AM 45.1836 -108.5969 24° Northeast 220 253 17,000  Level Salt Lake Center
Tue 09:27:31 AM 45.2431 -108.5594 24° Northeast 220 253 17,000  Level Salt Lake Center
Tue 09:28:32 AM 45.2986 -108.5242 24° Northeast 220 253 17,000  Level Salt Lake Center
Tue 09:29:33 AM 45.3533 -108.4864 26° Northeast 222 255 17,000  Level Salt Lake Center
Tue 09:30:34 AM 45.4136 -108.4478 24° Northeast 223 257 17,000  Level Salt Lake Center
Tue 09:31:35 AM 45.4694 -108.4147 23° Northeast 221 254 17,000  Level Salt Lake Center
Tue 09:32:36 AM 45.5258 -108.3806 23° Northeast 222 255 17,000  Level Salt Lake Center
Tue 09:33:38 AM 45.5856 -108.3453 22° Northeast 218 251 17,000  Level Salt Lake Center
Tue 09:34:39 AM 45.6403 -108.3111 24° Northeast 215 247 17,000  Level Salt Lake Center
Tue 09:35:40 AM 45.6994 -108.2747 23° Northeast 217 250 17,000  Level Salt Lake Center
Tue 09:36:41 AM 45.7536 -108.2386 25° Northeast 215 247 17,000  Level Salt Lake Center
Tue 09:37:43 AM 45.8086 -108.2031 24° Northeast 219 252 17,000  Level Salt Lake Center
Tue 09:38:44 AM 45.8683 -108.1669 23° Northeast 219 252 17,000  Level Salt Lake Center
Tue 09:39:45 AM 45.9242 -108.1308 24° Northeast 222 255 17,000  Level Salt Lake Center
Tue 09:40:47 AM 45.9842 -108.0931 24° Northeast 221 254 17,000  Level Salt Lake Center
Tue 09:41:48 AM 46.0408 -108.0556 25° Northeast 224 258 17,000  Level Salt Lake Center
Tue 09:42:49 AM 46.0958 -108.0206 24° Northeast 220 253 17,000  Level Salt Lake Center
Tue 09:43:51 AM 46.1567 -107.9814 24° Northeast 223 257 17,000  Level Salt Lake Center
Tue 09:44:52 AM 46.2136 -107.9478 22° Northeast 224 258 17,000  Level Salt Lake Center
Tue 09:45:53 AM 46.2736 -107.9092 24° Northeast 221 254 17,000  Level Salt Lake Center
Tue 09:46:55 AM 46.3292 -107.8722 25° Northeast 222 255 17,000 98 Level Salt Lake Center
Tue 09:47:56 AM 46.3842 -107.8350 25° Northeast 221 254 17,200 98 Climbing Salt Lake Center
Tue 09:48:58 AM 46.4439 -107.7958 24° Northeast 220 253 17,200  Level Salt Lake Center
Tue 09:49:59 AM 46.4989 -107.7597 24° Northeast 220 253 17,200  Level Salt Lake Center
Tue 09:51:01 AM 46.5592 -107.7206 24° Northeast 221 254 17,200  Level Salt Lake Center
Tue 09:52:02 AM 46.6156 -107.6831 25° Northeast 224 258 17,200 -19 Level Salt Lake Center
Tue 09:54:00 AM 46.7135 -107.6234 25° Northeast  Level FlightAware Approximate
Tue 09:56:21 AM 46.8600 -107.5253 25° Northeast 210 242 17,100  Level Salt Lake Center
Tue 09:57:22 AM 46.9214 -107.4861 24° Northeast 222 255 17,100  Level Salt Lake Center
Tue 09:58:24 AM 46.9786 -107.4531 22° Northeast 229 264 17,100  Level Salt Lake Center
Tue 09:59:26 AM 47.0397 -107.4139 24° Northeast 234 269 17,100 -49 Level Salt Lake Center
Tue 10:00:27 AM 47.1008 -107.3739 24° Northeast 237 273 17,000 -49 Descending Salt Lake Center
Tue 10:01:00 AM 47.0556 -107.3885 25° Northeast  Level FlightAware Approximate
Tue 10:01:29 AM 47.1719 -107.3222 26° Northeast 239 275 17,000  Level Salt Lake Center
Tue 10:02:30 AM 47.2300 -107.2825 25° Northeast 236 272 17,000 -49 Level Salt Lake Center
Tue 10:03:32 AM 47.2883 -107.2403 26° Northeast 235 270 16,900 -387 Descending Salt Lake Center
Tue 10:04:34 AM 47.3503 -107.1947 26° Northeast 238 274 16,200 -634 Descending Salt Lake Center
Tue 10:05:35 AM 47.4161 -107.1483 25° Northeast 246 283 15,600 -634 Descending Salt Lake Center
Tue 10:06:37 AM 47.4872 -107.1025 24° Northeast 251 289 14,900 -871 Descending Salt Lake Center
Tue 10:07:39 AM 47.5475 -107.0628 24° Northeast 254 292 13,800 -1,073 Descending Salt Lake Center
Tue 10:08:40 AM 47.6239 -107.0111 25° Northeast 255 293 12,700 -1,024 Descending Salt Lake Center
Tue 10:09:42 AM 47.6856 -106.9686 25° Northeast 252 290 11,700 -968 Descending Salt Lake Center
Tue 10:10:44 AM 47.7461 -106.9253 26° Northeast 249 287 10,700 -878 Descending Salt Lake Center
Tue 10:11:45 AM 47.8064 -106.8817 26° Northeast 245 282 9,900 -878 Descending Salt Lake Center
Tue 10:12:47 AM 47.8672 -106.8519 18° North 241 277 8,900 -968 Descending Salt Lake Center

Login

Don't have an account? Register now (free) for customized features, flight alerts, and more!